sensor_id;sensor_type;location;lat;lon;timestamp;temperature;humidity
816;DHT22;25928;51.062;13.752;2022-07-29T00:03:10;19.60;1.00
816;DHT22;25928;51.062;13.752;2022-07-29T00:05:39;19.80;1.00
816;DHT22;25928;51.062;13.752;2022-07-29T00:08:05;19.90;1.00
816;DHT22;25928;51.062;13.752;2022-07-29T00:10:31;19.70;1.00
816;DHT22;25928;51.062;13.752;2022-07-29T00:12:57;19.80;1.00
816;DHT22;25928;51.062;13.752;2022-07-29T00:15:25;19.70;1.00
816;DHT22;25928;51.062;13.752;2022-07-29T00:17:51;19.70;1.00
816;DHT22;25928;51.062;13.752;2022-07-29T00:22:43;19.50;1.00
816;DHT22;25928;51.062;13.752;2022-07-29T00:25:08;19.50;1.00
816;DHT22;25928;51.062;13.752;2022-07-29T00:27:35;19.50;1.00
816;DHT22;25928;51.062;13.752;2022-07-29T00:30:02;19.40;1.00
816;DHT22;25928;51.062;13.752;2022-07-29T00:37:39;19.40;1.00
816;DHT22;25928;51.062;13.752;2022-07-29T00:40:05;19.30;1.00
816;DHT22;25928;51.062;13.752;2022-07-29T00:42:44;19.20;1.00
816;DHT22;25928;51.062;13.752;2022-07-29T00:47:36;19.10;1.00
816;DHT22;25928;51.062;13.752;2022-07-29T00:50:03;19.10;1.00
816;DHT22;25928;51.062;13.752;2022-07-29T00:52:29;19.00;1.00
816;DHT22;25928;51.062;13.752;2022-07-29T00:54:54;19.00;1.00
816;DHT22;25928;51.062;13.752;2022-07-29T00:59:47;19.00;1.00
816;DHT22;25928;51.062;13.752;2022-07-29T01:02:13;18.90;1.00
816;DHT22;25928;51.062;13.752;2022-07-29T01:04:39;18.90;1.00
816;DHT22;25928;51.062;13.752;2022-07-29T01:09:32;18.90;1.00
816;DHT22;25928;51.062;13.752;2022-07-29T01:11:59;19.00;1.00
816;DHT22;25928;51.062;13.752;2022-07-29T01:14:25;18.90;1.00
816;DHT22;25928;51.062;13.752;2022-07-29T01:16:57;18.90;1.00
816;DHT22;25928;51.062;13.752;2022-07-29T01:19:52;18.90;1.00
816;DHT22;25928;51.062;13.752;2022-07-29T01:27:44;18.90;1.00
816;DHT22;25928;51.062;13.752;2022-07-29T01:30:13;18.60;1.00
816;DHT22;25928;51.062;13.752;2022-07-29T01:32:39;18.70;1.00
816;DHT22;25928;51.062;13.752;2022-07-29T01:40:02;18.70;1.00
816;DHT22;25928;51.062;13.752;2022-07-29T01:42:42;18.70;1.00
816;DHT22;25928;51.062;13.752;2022-07-29T01:45:15;18.80;1.00
816;DHT22;25928;51.062;13.752;2022-07-29T01:47:52;18.80;1.00
816;DHT22;25928;51.062;13.752;2022-07-29T01:50:20;18.60;1.00
816;DHT22;25928;51.062;13.752;2022-07-29T01:52:58;18.60;1.00
816;DHT22;25928;51.062;13.752;2022-07-29T01:55:31;18.60;1.00
816;DHT22;25928;51.062;13.752;2022-07-29T01:57:58;18.70;1.00
816;DHT22;25928;51.062;13.752;2022-07-29T02:00:26;18.60;1.00
816;DHT22;25928;51.062;13.752;2022-07-29T02:02:53;18.70;1.00
816;DHT22;25928;51.062;13.752;2022-07-29T02:05:21;18.50;1.00
816;DHT22;25928;51.062;13.752;2022-07-29T02:07:49;18.60;1.00
816;DHT22;25928;51.062;13.752;2022-07-29T02:10:18;18.70;1.00
816;DHT22;25928;51.062;13.752;2022-07-29T02:12:46;18.60;1.00
816;DHT22;25928;51.062;13.752;2022-07-29T02:15:13;18.60;1.00
816;DHT22;25928;51.062;13.752;2022-07-29T02:17:51;18.20;1.00
816;DHT22;25928;51.062;13.752;2022-07-29T02:22:45;18.60;1.00
816;DHT22;25928;51.062;13.752;2022-07-29T02:25:12;18.50;1.00
816;DHT22;25928;51.062;13.752;2022-07-29T02:27:40;18.50;1.00
816;DHT22;25928;51.062;13.752;2022-07-29T02:30:07;18.40;1.00
816;DHT22;25928;51.062;13.752;2022-07-29T02:32:36;18.30;1.00
816;DHT22;25928;51.062;13.752;2022-07-29T02:35:03;18.30;1.00
816;DHT22;25928;51.062;13.752;2022-07-29T02:37:30;22.40;1.00
816;DHT22;25928;51.062;13.752;2022-07-29T02:39:57;18.30;1.00
816;DHT22;25928;51.062;13.752;2022-07-29T02:42:24;18.30;1.00
816;DHT22;25928;51.062;13.752;2022-07-29T02:44:52;18.30;1.00
816;DHT22;25928;51.062;13.752;2022-07-29T02:47:34;18.30;1.00
816;DHT22;25928;51.062;13.752;2022-07-29T02:50:14;18.40;1.00
816;DHT22;25928;51.062;13.752;2022-07-29T02:52:47;18.30;1.00
816;DHT22;25928;51.062;13.752;2022-07-29T02:57:44;18.20;1.00
816;DHT22;25928;51.062;13.752;2022-07-29T03:00:12;18.30;1.00
816;DHT22;25928;51.062;13.752;2022-07-29T03:02:45;18.30;1.00
816;DHT22;25928;51.062;13.752;2022-07-29T03:05:17;18.30;1.00
816;DHT22;25928;51.062;13.752;2022-07-29T03:07:46;18.20;1.00
816;DHT22;25928;51.062;13.752;2022-07-29T03:12:40;18.20;1.00
816;DHT22;25928;51.062;13.752;2022-07-29T03:15:06;18.10;1.00
816;DHT22;25928;51.062;13.752;2022-07-29T03:17:32;18.20;1.00
816;DHT22;25928;51.062;13.752;2022-07-29T03:19:59;18.20;1.00
816;DHT22;25928;51.062;13.752;2022-07-29T03:22:25;18.20;1.00
816;DHT22;25928;51.062;13.752;2022-07-29T03:24:51;18.10;1.00
816;DHT22;25928;51.062;13.752;2022-07-29T03:29:42;18.10;1.00
816;DHT22;25928;51.062;13.752;2022-07-29T03:32:08;18.20;1.00
816;DHT22;25928;51.062;13.752;2022-07-29T03:34:34;18.20;1.00
816;DHT22;25928;51.062;13.752;2022-07-29T03:39:29;18.40;1.00
816;DHT22;25928;51.062;13.752;2022-07-29T03:41:59;18.20;1.00
816;DHT22;25928;51.062;13.752;2022-07-29T03:46:54;18.00;1.00
816;DHT22;25928;51.062;13.752;2022-07-29T03:49:21;18.40;1.00
816;DHT22;25928;51.062;13.752;2022-07-29T03:54:14;18.20;1.00
816;DHT22;25928;51.062;13.752;2022-07-29T03:56:43;18.40;1.00
816;DHT22;25928;51.062;13.752;2022-07-29T03:59:13;18.00;1.00
816;DHT22;25928;51.062;13.752;2022-07-29T04:01:39;18.10;1.00
816;DHT22;25928;51.062;13.752;2022-07-29T04:04:05;18.10;1.00
816;DHT22;25928;51.062;13.752;2022-07-29T04:06:50;18.20;1.00
816;DHT22;25928;51.062;13.752;2022-07-29T04:09:16;18.20;1.00
816;DHT22;25928;51.062;13.752;2022-07-29T04:14:08;18.40;1.00
816;DHT22;25928;51.062;13.752;2022-07-29T04:21:25;18.50;1.00
816;DHT22;25928;51.062;13.752;2022-07-29T04:23:51;18.60;1.00
816;DHT22;25928;51.062;13.752;2022-07-29T04:26:17;18.60;1.00
816;DHT22;25928;51.062;13.752;2022-07-29T04:28:43;18.60;1.00
816;DHT22;25928;51.062;13.752;2022-07-29T04:31:09;18.70;1.00
816;DHT22;25928;51.062;13.752;2022-07-29T04:33:35;18.70;1.00
816;DHT22;25928;51.062;13.752;2022-07-29T04:36:00;19.00;1.00
816;DHT22;25928;51.062;13.752;2022-07-29T04:38:26;18.80;1.00
816;DHT22;25928;51.062;13.752;2022-07-29T04:40:52;18.90;1.00
816;DHT22;25928;51.062;13.752;2022-07-29T04:43:17;18.90;1.00
816;DHT22;25928;51.062;13.752;2022-07-29T04:45:43;19.00;1.00
816;DHT22;25928;51.062;13.752;2022-07-29T04:48:08;19.10;1.00
816;DHT22;25928;51.062;13.752;2022-07-29T04:53:00;19.20;1.00
816;DHT22;25928;51.062;13.752;2022-07-29T04:55:26;19.30;1.00
816;DHT22;25928;51.062;13.752;2022-07-29T04:57:51;19.30;1.00
816;DHT22;25928;51.062;13.752;2022-07-29T05:00:17;19.40;1.00
816;DHT22;25928;51.062;13.752;2022-07-29T05:02:42;19.30;1.00
816;DHT22;25928;51.062;13.752;2022-07-29T05:05:08;19.40;1.00
816;DHT22;25928;51.062;13.752;2022-07-29T05:14:53;19.80;1.00
816;DHT22;25928;51.062;13.752;2022-07-29T05:17:19;19.90;1.00
816;DHT22;25928;51.062;13.752;2022-07-29T05:19:44;19.90;1.00
816;DHT22;25928;51.062;13.752;2022-07-29T05:22:10;20.00;1.00
816;DHT22;25928;51.062;13.752;2022-07-29T05:31:53;20.00;1.00
816;DHT22;25928;51.062;13.752;2022-07-29T05:34:19;20.00;1.00
816;DHT22;25928;51.062;13.752;2022-07-29T05:36:45;20.10;1.00
816;DHT22;25928;51.062;13.752;2022-07-29T05:44:05;20.30;1.00
816;DHT22;25928;51.062;13.752;2022-07-29T05:46:31;20.30;1.00
816;DHT22;25928;51.062;13.752;2022-07-29T05:48:56;20.30;1.00
816;DHT22;25928;51.062;13.752;2022-07-29T05:53:48;20.60;1.00
816;DHT22;25928;51.062;13.752;2022-07-29T05:58:39;20.80;1.00
816;DHT22;25928;51.062;13.752;2022-07-29T06:01:05;20.90;1.00
816;DHT22;25928;51.062;13.752;2022-07-29T06:03:30;21.10;1.00
816;DHT22;25928;51.062;13.752;2022-07-29T06:10:50;21.20;1.00
816;DHT22;25928;51.062;13.752;2022-07-29T06:13:15;21.30;1.00
816;DHT22;25928;51.062;13.752;2022-07-29T06:15:41;21.50;1.00
816;DHT22;25928;51.062;13.752;2022-07-29T06:23:00;21.70;1.00
816;DHT22;25928;51.062;13.752;2022-07-29T06:25:27;21.90;1.00
816;DHT22;25928;51.062;13.752;2022-07-29T06:27:57;22.00;1.00
816;DHT22;25928;51.062;13.752;2022-07-29T06:30:23;22.20;1.00
816;DHT22;25928;51.062;13.752;2022-07-29T06:32:49;22.20;1.00
816;DHT22;25928;51.062;13.752;2022-07-29T06:35:14;22.30;1.00
816;DHT22;25928;51.062;13.752;2022-07-29T06:42:51;22.80;1.00
816;DHT22;25928;51.062;13.752;2022-07-29T06:47:43;22.90;1.00
816;DHT22;25928;51.062;13.752;2022-07-29T06:52:38;23.20;1.00
816;DHT22;25928;51.062;13.752;2022-07-29T06:57:30;23.30;1.00
816;DHT22;25928;51.062;13.752;2022-07-29T06:59:58;23.40;1.00
816;DHT22;25928;51.062;13.752;2022-07-29T07:02:24;23.50;1.00
816;DHT22;25928;51.062;13.752;2022-07-29T07:04:50;23.60;1.00
816;DHT22;25928;51.062;13.752;2022-07-29T07:07:15;23.90;1.00
816;DHT22;25928;51.062;13.752;2022-07-29T07:09:41;24.00;1.00
816;DHT22;25928;51.062;13.752;2022-07-29T07:12:07;24.20;1.00
816;DHT22;25928;51.062;13.752;2022-07-29T07:16:59;24.30;1.00
816;DHT22;25928;51.062;13.752;2022-07-29T07:19:26;24.50;1.00
816;DHT22;25928;51.062;13.752;2022-07-29T07:21:53;24.40;1.00
816;DHT22;25928;51.062;13.752;2022-07-29T07:24:18;24.50;1.00
816;DHT22;25928;51.062;13.752;2022-07-29T07:26:44;24.40;1.00
816;DHT22;25928;51.062;13.752;2022-07-29T07:31:37;24.40;1.00
816;DHT22;25928;51.062;13.752;2022-07-29T07:36:29;24.40;1.00
816;DHT22;25928;51.062;13.752;2022-07-29T07:38:55;24.60;1.00
816;DHT22;25928;51.062;13.752;2022-07-29T07:41:21;24.70;1.00
816;DHT22;25928;51.062;13.752;2022-07-29T07:43:47;24.70;1.00
816;DHT22;25928;51.062;13.752;2022-07-29T07:46:14;24.70;1.00
816;DHT22;25928;51.062;13.752;2022-07-29T07:51:06;25.30;1.00
816;DHT22;25928;51.062;13.752;2022-07-29T07:53:32;24.80;1.00
816;DHT22;25928;51.062;13.752;2022-07-29T07:55:58;25.00;1.00
816;DHT22;25928;51.062;13.752;2022-07-29T07:58:24;24.80;1.00
816;DHT22;25928;51.062;13.752;2022-07-29T08:00:49;24.70;1.00
816;DHT22;25928;51.062;13.752;2022-07-29T08:03:15;24.70;1.00
816;DHT22;25928;51.062;13.752;2022-07-29T08:05:41;24.90;1.00
816;DHT22;25928;51.062;13.752;2022-07-29T08:10:33;25.60;1.00
816;DHT22;25928;51.062;13.752;2022-07-29T08:18:12;26.50;1.00
816;DHT22;25928;51.062;13.752;2022-07-29T08:20:37;26.70;1.00
816;DHT22;25928;51.062;13.752;2022-07-29T08:27:58;27.30;1.00
816;DHT22;25928;51.062;13.752;2022-07-29T08:32:50;27.80;1.00
816;DHT22;25928;51.062;13.752;2022-07-29T08:35:18;27.90;1.00
816;DHT22;25928;51.062;13.752;2022-07-29T08:40:10;28.10;1.00
816;DHT22;25928;51.062;13.752;2022-07-29T08:42:36;28.00;1.00
816;DHT22;25928;51.062;13.752;2022-07-29T08:45:03;28.10;1.00
816;DHT22;25928;51.062;13.752;2022-07-29T08:47:29;28.00;1.00
816;DHT22;25928;51.062;13.752;2022-07-29T08:49:55;28.20;1.00
816;DHT22;25928;51.062;13.752;2022-07-29T08:52:21;28.40;1.00
816;DHT22;25928;51.062;13.752;2022-07-29T08:57:15;28.70;1.00
816;DHT22;25928;51.062;13.752;2022-07-29T08:59:42;29.00;1.00
816;DHT22;25928;51.062;13.752;2022-07-29T09:02:23;29.20;1.00
816;DHT22;25928;51.062;13.752;2022-07-29T09:04:50;29.40;1.00
816;DHT22;25928;51.062;13.752;2022-07-29T09:07:17;29.50;1.00
816;DHT22;25928;51.062;13.752;2022-07-29T09:09:43;29.70;1.00
816;DHT22;25928;51.062;13.752;2022-07-29T09:12:10;30.00;1.00
816;DHT22;25928;51.062;13.752;2022-07-29T09:14:40;31.50;1.00
816;DHT22;25928;51.062;13.752;2022-07-29T09:17:06;30.40;1.00
816;DHT22;25928;51.062;13.752;2022-07-29T09:19:34;30.60;1.00
816;DHT22;25928;51.062;13.752;2022-07-29T09:22:02;31.10;1.00
816;DHT22;25928;51.062;13.752;2022-07-29T09:24:41;30.80;1.00
816;DHT22;25928;51.062;13.752;2022-07-29T09:27:24;30.80;1.00
816;DHT22;25928;51.062;13.752;2022-07-29T09:30:06;30.60;1.00
816;DHT22;25928;51.062;13.752;2022-07-29T09:32:33;30.80;1.00
816;DHT22;25928;51.062;13.752;2022-07-29T09:35:15;29.70;1.00
816;DHT22;25928;51.062;13.752;2022-07-29T09:37:43;31.10;1.00
816;DHT22;25928;51.062;13.752;2022-07-29T09:40:17;30.80;1.00
816;DHT22;25928;51.062;13.752;2022-07-29T09:42:45;30.80;1.00
816;DHT22;25928;51.062;13.752;2022-07-29T09:47:45;30.60;1.00
816;DHT22;25928;51.062;13.752;2022-07-29T09:50:12;30.60;1.00
816;DHT22;25928;51.062;13.752;2022-07-29T09:52:49;30.50;1.00
816;DHT22;25928;51.062;13.752;2022-07-29T09:57:41;31.00;1.00
816;DHT22;25928;51.062;13.752;2022-07-29T10:00:08;31.10;1.00
816;DHT22;25928;51.062;13.752;2022-07-29T10:02:36;31.20;1.00
816;DHT22;25928;51.062;13.752;2022-07-29T10:05:04;31.10;1.00
816;DHT22;25928;51.062;13.752;2022-07-29T10:10:09;31.10;1.00
816;DHT22;25928;51.062;13.752;2022-07-29T10:12:55;31.10;1.00
816;DHT22;25928;51.062;13.752;2022-07-29T10:15:25;31.30;1.00
816;DHT22;25928;51.062;13.752;2022-07-29T10:17:53;31.40;1.00
816;DHT22;25928;51.062;13.752;2022-07-29T10:20:20;31.20;1.00
816;DHT22;25928;51.062;13.752;2022-07-29T10:22:47;31.30;1.00
816;DHT22;25928;51.062;13.752;2022-07-29T10:25:15;31.30;1.00
816;DHT22;25928;51.062;13.752;2022-07-29T10:27:42;31.50;1.00
816;DHT22;25928;51.062;13.752;2022-07-29T10:30:09;31.40;1.00
816;DHT22;25928;51.062;13.752;2022-07-29T10:43:33;30.70;1.00
816;DHT22;25928;51.062;13.752;2022-07-29T10:46:02;30.50;1.00
816;DHT22;25928;51.062;13.752;2022-07-29T10:48:34;30.60;1.00
816;DHT22;25928;51.062;13.752;2022-07-29T10:51:00;30.70;1.00
816;DHT22;25928;51.062;13.752;2022-07-29T10:53:49;31.00;1.00
816;DHT22;25928;51.062;13.752;2022-07-29T10:56:29;31.00;1.00
816;DHT22;25928;51.062;13.752;2022-07-29T11:01:50;30.70;1.00
816;DHT22;25928;51.062;13.752;2022-07-29T11:07:11;31.10;1.00
816;DHT22;25928;51.062;13.752;2022-07-29T11:09:38;30.90;1.00
816;DHT22;25928;51.062;13.752;2022-07-29T11:12:24;30.90;1.00
816;DHT22;25928;51.062;13.752;2022-07-29T11:14:58;30.90;1.00
816;DHT22;25928;51.062;13.752;2022-07-29T11:17:26;31.20;1.00
816;DHT22;25928;51.062;13.752;2022-07-29T11:19:51;31.20;1.00
816;DHT22;25928;51.062;13.752;2022-07-29T11:22:36;31.20;1.00
816;DHT22;25928;51.062;13.752;2022-07-29T11:25:16;33.90;1.00
816;DHT22;25928;51.062;13.752;2022-07-29T11:27:42;31.40;1.00
816;DHT22;25928;51.062;13.752;2022-07-29T11:30:09;31.50;1.00
816;DHT22;25928;51.062;13.752;2022-07-29T11:32:39;31.50;1.00
816;DHT22;25928;51.062;13.752;2022-07-29T11:37:46;31.40;1.00
816;DHT22;25928;51.062;13.752;2022-07-29T11:40:14;31.30;1.00
816;DHT22;25928;51.062;13.752;2022-07-29T11:42:42;31.40;1.00
816;DHT22;25928;51.062;13.752;2022-07-29T11:45:18;31.50;1.00
816;DHT22;25928;51.062;13.752;2022-07-29T11:47:49;31.60;1.00
816;DHT22;25928;51.062;13.752;2022-07-29T11:50:33;31.70;1.00
816;DHT22;25928;51.062;13.752;2022-07-29T11:53:00;31.70;1.00
816;DHT22;25928;51.062;13.752;2022-07-29T11:55:25;31.70;1.00
816;DHT22;25928;51.062;13.752;2022-07-29T11:57:59;32.00;1.00
816;DHT22;25928;51.062;13.752;2022-07-29T12:02:51;31.90;1.00
816;DHT22;25928;51.062;13.752;2022-07-29T12:05:17;32.40;1.00
816;DHT22;25928;51.062;13.752;2022-07-29T12:07:43;32.30;1.00
816;DHT22;25928;51.062;13.752;2022-07-29T12:12:35;32.50;1.00
816;DHT22;25928;51.062;13.752;2022-07-29T12:15:15;32.70;1.00
816;DHT22;25928;51.062;13.752;2022-07-29T12:20:09;33.20;1.00
816;DHT22;25928;51.062;13.752;2022-07-29T12:22:38;33.20;1.00
816;DHT22;25928;51.062;13.752;2022-07-29T12:25:13;33.10;1.00
816;DHT22;25928;51.062;13.752;2022-07-29T12:27:41;32.80;1.00
816;DHT22;25928;51.062;13.752;2022-07-29T12:30:10;33.20;1.00
816;DHT22;25928;51.062;13.752;2022-07-29T12:32:40;33.50;1.00
816;DHT22;25928;51.062;13.752;2022-07-29T12:37:34;33.00;1.00
816;DHT22;25928;51.062;13.752;2022-07-29T12:40:01;32.90;1.00
816;DHT22;25928;51.062;13.752;2022-07-29T12:42:28;32.70;1.00
816;DHT22;25928;51.062;13.752;2022-07-29T12:44:53;32.80;1.00
816;DHT22;25928;51.062;13.752;2022-07-29T12:47:20;32.70;1.00
816;DHT22;25928;51.062;13.752;2022-07-29T12:49:46;32.50;1.00
816;DHT22;25928;51.062;13.752;2022-07-29T12:52:24;32.60;1.00
816;DHT22;25928;51.062;13.752;2022-07-29T12:54:50;32.70;1.00
816;DHT22;25928;51.062;13.752;2022-07-29T12:57:16;32.60;1.00
816;DHT22;25928;51.062;13.752;2022-07-29T12:59:43;32.80;1.00
816;DHT22;25928;51.062;13.752;2022-07-29T13:02:21;32.80;1.00
816;DHT22;25928;51.062;13.752;2022-07-29T13:04:56;32.70;1.00
816;DHT22;25928;51.062;13.752;2022-07-29T13:07:27;32.90;1.00
816;DHT22;25928;51.062;13.752;2022-07-29T13:09:54;33.00;1.00
816;DHT22;25928;51.062;13.752;2022-07-29T13:12:20;33.20;1.00
816;DHT22;25928;51.062;13.752;2022-07-29T13:14:49;33.20;1.00
816;DHT22;25928;51.062;13.752;2022-07-29T13:17:20;33.20;1.00
816;DHT22;25928;51.062;13.752;2022-07-29T13:19:51;32.60;1.00
816;DHT22;25928;51.062;13.752;2022-07-29T13:22:19;34.90;1.00
816;DHT22;25928;51.062;13.752;2022-07-29T13:24:49;33.10;1.00
816;DHT22;25928;51.062;13.752;2022-07-29T13:27:16;32.90;1.00
816;DHT22;25928;51.062;13.752;2022-07-29T13:29:42;32.70;1.00
816;DHT22;25928;51.062;13.752;2022-07-29T13:37:00;32.80;1.00
816;DHT22;25928;51.062;13.752;2022-07-29T13:39:26;32.70;1.00
816;DHT22;25928;51.062;13.752;2022-07-29T13:41:51;32.50;1.00
816;DHT22;25928;51.062;13.752;2022-07-29T13:44:17;32.40;1.00
816;DHT22;25928;51.062;13.752;2022-07-29T13:49:09;32.50;1.00
816;DHT22;25928;51.062;13.752;2022-07-29T13:51:36;30.70;1.00
816;DHT22;25928;51.062;13.752;2022-07-29T13:54:02;32.40;1.00
816;DHT22;25928;51.062;13.752;2022-07-29T13:56:28;32.50;1.00
816;DHT22;25928;51.062;13.752;2022-07-29T13:58:53;32.60;1.00
816;DHT22;25928;51.062;13.752;2022-07-29T14:01:19;32.60;1.00
816;DHT22;25928;51.062;13.752;2022-07-29T14:03:45;32.60;1.00
816;DHT22;25928;51.062;13.752;2022-07-29T14:06:10;32.90;1.00
816;DHT22;25928;51.062;13.752;2022-07-29T14:11:05;33.10;1.00
816;DHT22;25928;51.062;13.752;2022-07-29T14:13:30;33.00;1.00
816;DHT22;25928;51.062;13.752;2022-07-29T14:15:56;33.10;1.00
816;DHT22;25928;51.062;13.752;2022-07-29T14:20:48;33.30;1.00
816;DHT22;25928;51.062;13.752;2022-07-29T14:23:14;34.20;1.00
816;DHT22;25928;51.062;13.752;2022-07-29T14:25:39;35.40;1.00
816;DHT22;25928;51.062;13.752;2022-07-29T14:28:05;35.20;1.00
816;DHT22;25928;51.062;13.752;2022-07-29T14:32:56;34.70;1.00
816;DHT22;25928;51.062;13.752;2022-07-29T14:35:22;35.80;1.00
816;DHT22;25928;51.062;13.752;2022-07-29T14:37:48;36.10;1.00
816;DHT22;25928;51.062;13.752;2022-07-29T14:40:13;36.50;1.00
816;DHT22;25928;51.062;13.752;2022-07-29T14:42:39;37.30;1.00
816;DHT22;25928;51.062;13.752;2022-07-29T14:45:06;38.40;1.00
816;DHT22;25928;51.062;13.752;2022-07-29T14:47:33;39.30;1.00
816;DHT22;25928;51.062;13.752;2022-07-29T14:49:59;39.30;1.00
816;DHT22;25928;51.062;13.752;2022-07-29T14:52:25;39.40;1.00
816;DHT22;25928;51.062;13.752;2022-07-29T14:54:50;39.80;1.00
816;DHT22;25928;51.062;13.752;2022-07-29T14:57:16;40.00;1.00
816;DHT22;25928;51.062;13.752;2022-07-29T14:59:41;40.50;1.00
816;DHT22;25928;51.062;13.752;2022-07-29T15:02:10;40.10;1.00
816;DHT22;25928;51.062;13.752;2022-07-29T15:04:39;39.00;1.00
816;DHT22;25928;51.062;13.752;2022-07-29T15:07:05;37.50;1.00
816;DHT22;25928;51.062;13.752;2022-07-29T15:09:31;36.50;1.00
816;DHT22;25928;51.062;13.752;2022-07-29T15:11:56;35.70;1.00
816;DHT22;25928;51.062;13.752;2022-07-29T15:16:48;34.40;1.00
816;DHT22;25928;51.062;13.752;2022-07-29T15:19:13;33.90;1.00
816;DHT22;25928;51.062;13.752;2022-07-29T15:21:39;33.50;1.00
816;DHT22;25928;51.062;13.752;2022-07-29T15:24:05;32.80;1.00
816;DHT22;25928;51.062;13.752;2022-07-29T15:26:32;32.50;1.00
816;DHT22;25928;51.062;13.752;2022-07-29T15:31:24;31.90;1.00
816;DHT22;25928;51.062;13.752;2022-07-29T15:36:15;32.60;1.00
816;DHT22;25928;51.062;13.752;2022-07-29T15:41:07;33.50;1.00
816;DHT22;25928;51.062;13.752;2022-07-29T15:43:33;32.80;1.00
816;DHT22;25928;51.062;13.752;2022-07-29T15:46:00;32.30;1.00
816;DHT22;25928;51.062;13.752;2022-07-29T15:48:45;31.60;1.00
816;DHT22;25928;51.062;13.752;2022-07-29T15:51:10;31.40;1.00
816;DHT22;25928;51.062;13.752;2022-07-29T15:56:05;31.00;1.00
816;DHT22;25928;51.062;13.752;2022-07-29T15:58:30;31.00;1.00
816;DHT22;25928;51.062;13.752;2022-07-29T16:03:23;30.60;1.00
816;DHT22;25928;51.062;13.752;2022-07-29T16:08:15;30.60;1.00
816;DHT22;25928;51.062;13.752;2022-07-29T16:10:40;30.50;1.00
816;DHT22;25928;51.062;13.752;2022-07-29T16:13:06;30.50;1.00
816;DHT22;25928;51.062;13.752;2022-07-29T16:15:31;30.50;1.00
816;DHT22;25928;51.062;13.752;2022-07-29T16:17:57;30.40;1.00
816;DHT22;25928;51.062;13.752;2022-07-29T16:20:23;30.10;1.00
816;DHT22;25928;51.062;13.752;2022-07-29T16:22:49;30.00;1.00
816;DHT22;25928;51.062;13.752;2022-07-29T16:30:07;30.10;1.00
816;DHT22;25928;51.062;13.752;2022-07-29T16:32:36;29.90;1.00
816;DHT22;25928;51.062;13.752;2022-07-29T16:40:00;29.80;1.00
816;DHT22;25928;51.062;13.752;2022-07-29T16:49:43;29.70;1.00
816;DHT22;25928;51.062;13.752;2022-07-29T16:59:28;29.60;1.00
816;DHT22;25928;51.062;13.752;2022-07-29T17:01:53;29.60;1.00
816;DHT22;25928;51.062;13.752;2022-07-29T17:06:45;29.50;1.00
816;DHT22;25928;51.062;13.752;2022-07-29T17:09:12;29.40;1.00
816;DHT22;25928;51.062;13.752;2022-07-29T17:11:41;29.40;1.00
816;DHT22;25928;51.062;13.752;2022-07-29T17:14:08;29.40;1.00
816;DHT22;25928;51.062;13.752;2022-07-29T17:16:34;29.40;1.00
816;DHT22;25928;51.062;13.752;2022-07-29T17:19:00;29.40;1.00
816;DHT22;25928;51.062;13.752;2022-07-29T17:21:26;29.40;1.00
816;DHT22;25928;51.062;13.752;2022-07-29T17:23:52;29.40;1.00
816;DHT22;25928;51.062;13.752;2022-07-29T17:26:19;29.40;1.00
816;DHT22;25928;51.062;13.752;2022-07-29T17:28:45;29.40;1.00
816;DHT22;25928;51.062;13.752;2022-07-29T17:31:10;29.40;1.00
816;DHT22;25928;51.062;13.752;2022-07-29T17:36:06;29.20;1.00
816;DHT22;25928;51.062;13.752;2022-07-29T17:38:52;29.10;1.00
816;DHT22;25928;51.062;13.752;2022-07-29T17:41:19;29.00;1.00
816;DHT22;25928;51.062;13.752;2022-07-29T17:43:45;28.90;1.00
816;DHT22;25928;51.062;13.752;2022-07-29T17:46:11;28.90;1.00
816;DHT22;25928;51.062;13.752;2022-07-29T17:51:05;28.70;1.00
816;DHT22;25928;51.062;13.752;2022-07-29T17:53:31;28.60;1.00
816;DHT22;25928;51.062;13.752;2022-07-29T17:55:56;28.50;1.00
816;DHT22;25928;51.062;13.752;2022-07-29T17:58:23;28.40;1.00
816;DHT22;25928;51.062;13.752;2022-07-29T18:00:49;28.40;1.00
816;DHT22;25928;51.062;13.752;2022-07-29T18:08:07;28.30;1.00
816;DHT22;25928;51.062;13.752;2022-07-29T18:10:33;28.10;1.00
816;DHT22;25928;51.062;13.752;2022-07-29T18:12:59;28.00;1.00
816;DHT22;25928;51.062;13.752;2022-07-29T18:17:50;27.90;1.00
816;DHT22;25928;51.062;13.752;2022-07-29T18:20:16;27.80;1.00
816;DHT22;25928;51.062;13.752;2022-07-29T18:27:34;27.70;1.00
816;DHT22;25928;51.062;13.752;2022-07-29T18:32:26;27.70;1.00
816;DHT22;25928;51.062;13.752;2022-07-29T18:34:52;27.70;1.00
816;DHT22;25928;51.062;13.752;2022-07-29T18:37:18;27.60;1.00
816;DHT22;25928;51.062;13.752;2022-07-29T18:39:43;27.60;1.00
816;DHT22;25928;51.062;13.752;2022-07-29T18:42:09;27.50;1.00
816;DHT22;25928;51.062;13.752;2022-07-29T18:44:35;27.50;1.00
816;DHT22;25928;51.062;13.752;2022-07-29T18:47:00;27.30;1.00
816;DHT22;25928;51.062;13.752;2022-07-29T18:49:26;27.20;1.00
816;DHT22;25928;51.062;13.752;2022-07-29T18:56:45;27.10;1.00
816;DHT22;25928;51.062;13.752;2022-07-29T18:59:11;27.00;1.00
816;DHT22;25928;51.062;13.752;2022-07-29T19:04:07;27.10;1.00
816;DHT22;25928;51.062;13.752;2022-07-29T19:08:58;27.00;1.00
816;DHT22;25928;51.062;13.752;2022-07-29T19:11:24;26.90;1.00
816;DHT22;25928;51.062;13.752;2022-07-29T19:13:50;26.70;1.00
816;DHT22;25928;51.062;13.752;2022-07-29T19:16:16;26.70;1.00
816;DHT22;25928;51.062;13.752;2022-07-29T19:18:42;26.70;1.00
816;DHT22;25928;51.062;13.752;2022-07-29T19:21:09;26.70;1.00
816;DHT22;25928;51.062;13.752;2022-07-29T19:26:01;26.80;1.00
816;DHT22;25928;51.062;13.752;2022-07-29T19:28:27;26.90;1.00
816;DHT22;25928;51.062;13.752;2022-07-29T19:30:52;26.90;1.00
816;DHT22;25928;51.062;13.752;2022-07-29T19:33:18;26.70;1.00
816;DHT22;25928;51.062;13.752;2022-07-29T19:35:45;26.60;1.00
816;DHT22;25928;51.062;13.752;2022-07-29T19:43:04;26.30;1.00
816;DHT22;25928;51.062;13.752;2022-07-29T19:45:30;26.20;1.00
816;DHT22;25928;51.062;13.752;2022-07-29T19:47:56;26.10;1.00
816;DHT22;25928;51.062;13.752;2022-07-29T19:50:22;26.10;1.00
816;DHT22;25928;51.062;13.752;2022-07-29T19:52:49;26.10;1.00
816;DHT22;25928;51.062;13.752;2022-07-29T19:55:15;26.00;1.00
816;DHT22;25928;51.062;13.752;2022-07-29T19:57:41;26.10;1.00
816;DHT22;25928;51.062;13.752;2022-07-29T20:00:08;26.00;1.00
816;DHT22;25928;51.062;13.752;2022-07-29T20:02:35;26.10;1.00
816;DHT22;25928;51.062;13.752;2022-07-29T20:05:01;26.00;1.00
816;DHT22;25928;51.062;13.752;2022-07-29T20:09:53;25.90;1.00
816;DHT22;25928;51.062;13.752;2022-07-29T20:12:20;26.00;1.00
816;DHT22;25928;51.062;13.752;2022-07-29T20:14:47;26.00;1.00
816;DHT22;25928;51.062;13.752;2022-07-29T20:24:33;25.90;1.00
816;DHT22;25928;51.062;13.752;2022-07-29T20:26:59;25.80;1.00
816;DHT22;25928;51.062;13.752;2022-07-29T20:29:25;25.70;1.00
816;DHT22;25928;51.062;13.752;2022-07-29T20:31:50;25.60;1.00
816;DHT22;25928;51.062;13.752;2022-07-29T20:36:42;25.50;1.00
816;DHT22;25928;51.062;13.752;2022-07-29T20:39:08;25.50;1.00